Time;durP1;ratioP1;P1;durP2;ratioP2;P2;SDS_P1;SDS_P2;PMS_P1;PMS_P2;Temp;Humidity;BMP_temperature;BMP_pressure;BME280_temperature;BME280_humidity;BME280_pressure;Samples;Min_cycle;Max_cycle;Signal;HPM_P1;HPM_P2
2023/06/29 00:01:47;;;;;;;;;;;;;;;;;;4973433;28;20018;-65
2023/06/29 00:04:12;;;;;;;;;;;;;;;;;;4973300;28;19966;-59
2023/06/29 00:06:37;;;;;;;;;;;;;;;;;;4974782;28;19939;-59
2023/06/29 00:09:03;;;;;;;;;;;;;;;;;;4973718;28;19939;-59
2023/06/29 00:11:28;;;;;;;;;;;;;;;;;;4974622;28;19941;-58
2023/06/29 00:13:53;;;;;;;;;;;;;;;;;;4972824;28;19939;-59
2023/06/29 00:16:19;;;;;;;;;;;;;;;;;;4973745;28;19938;-59
2023/06/29 00:18:44;;;;;;;;;;;;;;;;;;4974532;28;20326;-59
2023/06/29 00:21:10;;;;;;;;;;;;;;;;;;4973624;28;20444;-59
2023/06/29 00:23:35;;;;;;;;;;;;;;;;;;4973876;28;20004;-59
2023/06/29 00:26:02;;;;;;;;;;;;;;;;;;4973355;28;19950;-59
2023/06/29 00:28:28;;;;;;;;;;;;;;;;;;4972766;28;19939;-59
2023/06/29 00:30:53;;;;;;;;;;;;;;;;;;4974791;28;20466;-59
2023/06/29 00:33:19;;;;;;;;;;;;;;;;;;4982155;28;19946;-59
2023/06/29 00:35:44;;;;;;;;;;;;;;;;;;4973468;28;19935;-59
2023/06/29 00:38:09;;;;;;;;;;;;;;;;;;4973586;28;20414;-58
2023/06/29 00:40:35;;;;;;;;;;;;;;;;;;4972867;28;19935;-56
2023/06/29 00:43:00;;;;;;;;;;;;;;;;;;4974807;28;20504;-57
2023/06/29 00:45:25;;;;;;;;;;;;;;;;;;4976221;28;19946;-59
2023/06/29 00:47:51;;;;;;;;;;;;;;;;;;4973839;28;19973;-57
2023/06/29 00:50:16;;;;;;;;;;;;;;;;;;4973750;28;20023;-59
2023/06/29 00:52:42;;;;;;;;;;;;;;;;;;4973876;28;19930;-58
2023/06/29 00:55:07;;;;;;;;;;;;;;;;;;4973486;28;20106;-58
2023/06/29 00:57:35;;;;;;;;;;;;;;;;;;4978199;28;20485;-58
2023/06/29 01:00:00;;;;;;;;;;;;;;;;;;4972256;28;19918;-58
2023/06/29 01:02:26;;;;;;;;;;;;;;;;;;4972764;28;19940;-58
2023/06/29 01:04:51;;;;;;;;;;;;;;;;;;4970956;28;19961;-59
2023/06/29 01:07:18;;;;;;;;;;;;;;;;;;4974006;28;19987;-58
2023/06/29 01:09:44;;;;;;;;;;;;;;;;;;4970353;28;19944;-58
2023/06/29 01:12:10;;;;;;;;;;;;;;;;;;4972203;28;20721;-59
2023/06/29 01:14:35;;;;;;;;;;;;;;;;;;4972328;28;19946;-58
2023/06/29 01:17:00;;;;;;;;;;;;;;;;;;4973013;28;19935;-59
2023/06/29 01:19:28;;;;;;;;;;;;;;;;;;4972934;28;20344;-59
2023/06/29 01:21:54;;;;;;;;;;;;;;;;;;4971662;28;20124;-58
2023/06/29 01:24:20;;;;;;;;;;;;;;;;;;4976610;28;19970;-57
2023/06/29 01:26:47;;;;;;;;;;;;;;;;;;4975182;28;19938;-58
2023/06/29 01:29:13;;;;;;;;;;;;;;;;;;4973887;28;19964;-58
2023/06/29 01:31:38;;;;;;;;;;;;;;;;;;4970676;28;19933;-58
2023/06/29 01:34:04;;;;;;;;;;;;;;;;;;4974163;28;19940;-58
2023/06/29 01:36:29;;;;;;;;;;;;;;;;;;4977136;28;19942;-57
2023/06/29 01:38:55;;;;;;;;;;;;;;;;;;4979171;28;20280;-58
2023/06/29 01:41:20;;;;;;;;;;;;;;;;;;4959845;28;19988;-59
2023/06/29 01:43:45;;;;;;;;;;;;;;;;;;4975095;28;20047;-58
2023/06/29 01:46:13;;;;;;;;;;;;;;;;;;4970287;28;19936;-58
2023/06/29 01:48:38;;;;;;;;;;;;;;;;;;4972101;28;19981;-60
2023/06/29 01:51:04;;;;;;;;;;;;;;;;;;4971254;28;19939;-59
2023/06/29 01:53:29;;;;;;;;;;;;;;;;;;4971675;28;19943;-59
2023/06/29 01:55:55;;;;;;;;;;;;;;;;;;4972886;28;20000;-58
2023/06/29 01:58:20;;;;;;;;;;;;;;;;;;4975777;28;20090;-59
2023/06/29 02:00:45;;;;;;;;;;;;;;;;;;4970737;28;19999;-60
2023/06/29 02:03:11;;;;;;;;;;;;;;;;;;4976878;28;19983;-59
2023/06/29 02:05:37;;;;;;;;;;;;;;;;;;4972799;28;19949;-58
2023/06/29 02:08:02;;;;;;;;;;;;;;;;;;4976841;28;20381;-58
2023/06/29 02:10:28;;;;;;;;;;;;;;;;;;4972193;28;19937;-59
2023/06/29 02:12:53;;;;;;;;;;;;;;;;;;4974571;28;20011;-59
2023/06/29 02:15:18;;;;;;;;;;;;;;;;;;4972037;28;19993;-59
2023/06/29 02:17:43;;;;;;;;;;;;;;;;;;4971348;28;19964;-58
2023/06/29 02:20:11;;;;;;;;;;;;;;;;;;4969112;28;19946;-59
2023/06/29 02:22:37;;;;;;;;;;;;;;;;;;4970405;28;19939;-59
2023/06/29 02:25:02;;;;;;;;;;;;;;;;;;4974701;28;19985;-59
2023/06/29 02:27:27;;;;;;;;;;;;;;;;;;4971413;28;20023;-60
2023/06/29 02:29:53;;;;;;;;;;;;;;;;;;4971805;28;19943;-58
2023/06/29 02:32:21;;;;;;;;;;;;;;;;;;4972132;28;19949;-59
2023/06/29 02:34:46;;;;;;;;;;;;;;;;;;4976524;28;19939;-58
2023/06/29 02:37:12;;;;;;;;;;;;;;;;;;4969892;28;19945;-58
2023/06/29 02:39:37;;;;;;;;;;;;;;;;;;4970873;28;19936;-58
2023/06/29 02:42:02;;;;;;;;;;;;;;;;;;4970712;28;20562;-59
2023/06/29 02:44:28;;;;;;;;;;;;;;;;;;4969412;28;19997;-56
2023/06/29 02:46:53;;;;;;;;;;;;;;;;;;4974229;28;20341;-58
2023/06/29 02:49:19;;;;;;;;;;;;;;;;;;4970167;28;20368;-59
2023/06/29 02:51:45;;;;;;;;;;;;;;;;;;4975464;28;19937;-58
2023/06/29 02:54:13;;;;;;;;;;;;;;;;;;4976515;28;19988;-58
2023/06/29 02:56:39;;;;;;;;;;;;;;;;;;4970986;28;20367;-58
2023/06/29 02:59:04;;;;;;;;;;;;;;;;;;4970383;28;19939;-57
2023/06/29 03:01:29;;;;;;;;;;;;;;;;;;4970275;28;20010;-56
2023/06/29 03:03:55;;;;;;;;;;;;;;;;;;4974167;28;20379;-58
2023/06/29 03:06:21;;;;;;;;;;;;;;;;;;4970586;28;19935;-58
2023/06/29 03:08:48;;;;;;;;;;;;;;;;;;4969727;28;19932;-58
2023/06/29 03:11:13;;;;;;;;;;;;;;;;;;4970617;28;20159;-58
2023/06/29 03:13:38;;;;;;;;;;;;;;;;;;4970397;28;19940;-58
2023/06/29 03:16:04;;;;;;;;;;;;;;;;;;4972875;28;19936;-58
2023/06/29 03:18:29;;;;;;;;;;;;;;;;;;4969662;28;19943;-56
2023/06/29 03:20:55;;;;;;;;;;;;;;;;;;4972664;28;19958;-58
2023/06/29 03:23:20;;;;;;;;;;;;;;;;;;4972408;28;20442;-58
2023/06/29 03:25:45;;;;;;;;;;;;;;;;;;4969974;28;19967;-59
2023/06/29 03:28:11;;;;;;;;;;;;;;;;;;4970616;28;19942;-58
2023/06/29 03:30:36;;;;;;;;;;;;;;;;;;4976249;28;19959;-58
2023/06/29 03:33:02;;;;;;;;;;;;;;;;;;4976230;28;19935;-58
2023/06/29 03:35:27;;;;;;;;;;;;;;;;;;4975745;28;19989;-58
2023/06/29 03:37:53;;;;;;;;;;;;;;;;;;4974736;28;19942;-58
2023/06/29 03:40:18;;;;;;;;;;;;;;;;;;4974958;28;20389;-58
2023/06/29 03:42:46;;;;;;;;;;;;;;;;;;4974737;28;19940;-57
2023/06/29 03:45:11;;;;;;;;;;;;;;;;;;4976651;28;20457;-58
2023/06/29 03:47:37;;;;;;;;;;;;;;;;;;4974646;28;19989;-59
2023/06/29 03:50:02;;;;;;;;;;;;;;;;;;4975635;28;19940;-59
2023/06/29 03:52:28;;;;;;;;;;;;;;;;;;4973887;28;20376;-59
2023/06/29 03:54:53;;;;;;;;;;;;;;;;;;4974082;28;19930;-63
2023/06/29 03:57:18;;;;;;;;;;;;;;;;;;4974474;28;19965;-57
2023/06/29 03:59:44;;;;;;;;;;;;;;;;;;4974196;28;19942;-59
2023/06/29 04:02:09;;;;;;;;;;;;;;;;;;4971339;28;20408;-59
2023/06/29 04:04:34;;;;;;;;;;;;;;;;;;4974591;28;20158;-58
2023/06/29 04:07:00;;;;;;;;;;;;;;;;;;4974899;28;19946;-59
2023/06/29 04:09:25;;;;;;;;;;;;;;;;;;4973453;28;20440;-58
2023/06/29 04:11:51;;;;;;;;;;;;;;;;;;4973461;28;19948;-58
2023/06/29 04:14:16;;;;;;;;;;;;;;;;;;4974168;28;19945;-59
2023/06/29 04:16:42;;;;;;;;;;;;;;;;;;4977623;28;19936;-58
2023/06/29 04:19:07;;;;;;;;;;;;;;;;;;4971789;28;20064;-59
2023/06/29 04:21:32;;;;;;;;;;;;;;;;;;4974181;28;19939;-59
2023/06/29 04:23:58;;;;;;;;;;;;;;;;;;4971614;28;20009;-60
2023/06/29 04:26:27;;;;;;;;;;;;;;;;;;4974495;28;20002;-59
2023/06/29 04:28:53;;;;;;;;;;;;;;;;;;4974180;28;20022;-58
2023/06/29 04:31:18;;;;;;;;;;;;;;;;;;4973437;28;19937;-59
2023/06/29 04:33:44;;;;;;;;;;;;;;;;;;4972989;28;19982;-58
2023/06/29 04:36:12;;;;;;;;;;;;;;;;;;4980279;28;20100;-58
2023/06/29 04:38:38;;;;;;;;;;;;;;;;;;4974680;28;19941;-59
2023/06/29 04:41:04;;;;;;;;;;;;;;;;;;4972429;28;20573;-58
2023/06/29 04:43:29;;;;;;;;;;;;;;;;;;4973383;28;20063;-58
2023/06/29 04:45:54;;;;;;;;;;;;;;;;;;4974373;28;19957;-58
2023/06/29 04:48:24;;;;;;;;;;;;;;;;;;4973052;28;19993;-58
2023/06/29 04:50:49;;;;;;;;;;;;;;;;;;4974464;28;19937;-57
2023/06/29 04:53:15;;;;;;;;;;;;;;;;;;4973454;28;19951;-59
2023/06/29 04:55:40;;;;;;;;;;;;;;;;;;4973348;28;19965;-57
2023/06/29 04:58:05;;;;;;;;;;;;;;;;;;4978416;28;19940;-59
2023/06/29 05:00:31;;;;;;;;;;;;;;;;;;4971614;28;19941;-59
2023/06/29 05:02:56;;;;;;;;;;;;;;;;;;4972368;28;19957;-58
2023/06/29 05:05:22;;;;;;;;;;;;;;;;;;4973020;28;19942;-58
2023/06/29 05:07:47;;;;;;;;;;;;;;;;;;4972230;28;20507;-57
2023/06/29 05:10:13;;;;;;;;;;;;;;;;;;4972151;28;20031;-58
2023/06/29 05:12:38;;;;;;;;;;;;;;;;;;4973241;28;20382;-59
2023/06/29 05:15:03;;;;;;;;;;;;;;;;;;4970566;28;20460;-58
2023/06/29 05:17:28;;;;;;;;;;;;;;;;;;4972841;28;20291;-59
2023/06/29 05:19:54;;;;;;;;;;;;;;;;;;4973653;28;19944;-59
2023/06/29 05:22:19;;;;;;;;;;;;;;;;;;4973457;28;20053;-59
2023/06/29 05:24:44;;;;;;;;;;;;;;;;;;4972989;28;19956;-59
2023/06/29 05:27:10;;;;;;;;;;;;;;;;;;4973144;28;19950;-58
2023/06/29 05:29:35;;;;;;;;;;;;;;;;;;4971946;28;20025;-59
2023/06/29 05:32:01;;;;;;;;;;;;;;;;;;4971915;28;19941;-58
2023/06/29 05:34:26;;;;;;;;;;;;;;;;;;4972842;28;19938;-58
2023/06/29 05:36:51;;;;;;;;;;;;;;;;;;4973384;28;20528;-59
2023/06/29 05:39:17;;;;;;;;;;;;;;;;;;4972847;28;19945;-57
2023/06/29 05:41:42;;;;;;;;;;;;;;;;;;4973703;28;19948;-59
2023/06/29 05:44:08;;;;;;;;;;;;;;;;;;4967596;28;20475;-60
2023/06/29 05:46:34;;;;;;;;;;;;;;;;;;4967911;28;20048;-59
2023/06/29 05:48:59;;;;;;;;;;;;;;;;;;4971287;28;19946;-59
2023/06/29 05:51:24;;;;;;;;;;;;;;;;;;4978270;28;20189;-60
2023/06/29 05:53:50;;;;;;;;;;;;;;;;;;4971423;28;19951;-61
2023/06/29 05:56:15;;;;;;;;;;;;;;;;;;4972166;28;19941;-58
2023/06/29 05:58:41;;;;;;;;;;;;;;;;;;4970835;28;21075;-60
2023/06/29 06:01:06;;;;;;;;;;;;;;;;;;4972311;28;20062;-63
2023/06/29 06:03:33;;;;;;;;;;;;;;;;;;4973078;28;20477;-59
2023/06/29 06:05:58;;;;;;;;;;;;;;;;;;4969802;28;19946;-59
2023/06/29 06:08:23;;;;;;;;;;;;;;;;;;4971874;28;19948;-61
2023/06/29 06:10:49;;;;;;;;;;;;;;;;;;4972376;28;20394;-59
2023/06/29 06:13:14;;;;;;;;;;;;;;;;;;4971891;28;19950;-59
2023/06/29 06:15:40;;;;;;;;;;;;;;;;;;4969607;28;19979;-58
2023/06/29 06:18:05;;;;;;;;;;;;;;;;;;4970572;28;19942;-58
2023/06/29 06:20:31;;;;;;;;;;;;;;;;;;4973159;28;19936;-59
2023/06/29 06:22:56;;;;;;;;;;;;;;;;;;4971720;28;20436;-59
2023/06/29 06:25:21;;;;;;;;;;;;;;;;;;4969808;28;19934;-59
2023/06/29 06:27:47;;;;;;;;;;;;;;;;;;4969616;28;20315;-59
2023/06/29 06:30:12;;;;;;;;;;;;;;;;;;4970212;28;20034;-59
2023/06/29 06:32:41;;;;;;;;;;;;;;;;;;4972384;28;19935;-60
2023/06/29 06:35:07;;;;;;;;;;;;;;;;;;4970621;28;20076;-59
2023/06/29 06:37:33;;;;;;;;;;;;;;;;;;4972129;28;20004;-60
2023/06/29 06:39:58;;;;;;;;;;;;;;;;;;4969018;28;20353;-60
2023/06/29 06:42:23;;;;;;;;;;;;;;;;;;4971894;28;19938;-59
2023/06/29 06:44:49;;;;;;;;;;;;;;;;;;4978318;28;19977;-58
2023/06/29 06:47:14;;;;;;;;;;;;;;;;;;4971609;28;19936;-60
2023/06/29 06:49:40;;;;;;;;;;;;;;;;;;4971992;28;21181;-62
2023/06/29 06:52:05;;;;;;;;;;;;;;;;;;4970284;28;19996;-62
2023/06/29 06:54:31;;;;;;;;;;;;;;;;;;4970387;28;19969;-64
2023/06/29 06:56:56;;;;;;;;;;;;;;;;;;4971595;28;19934;-67
2023/06/29 06:59:22;;;;;;;;;;;;;;;;;;4972051;28;19982;-68
2023/06/29 07:01:47;;;;;;;;;;;;;;;;;;4969879;28;19937;-66
2023/06/29 07:04:13;;;;;;;;;;;;;;;;;;4974268;28;19964;-66
2023/06/29 07:06:38;;;;;;;;;;;;;;;;;;4976170;28;20321;-68
2023/06/29 07:09:04;;;;;;;;;;;;;;;;;;4976007;28;19994;-67
2023/06/29 07:11:29;;;;;;;;;;;;;;;;;;4977255;28;19948;-66
2023/06/29 07:13:55;;;;;;;;;;;;;;;;;;4973843;28;19943;-67
2023/06/29 07:16:20;;;;;;;;;;;;;;;;;;4975981;28;20057;-67
2023/06/29 07:18:46;;;;;;;;;;;;;;;;;;4982814;28;19938;-66
2023/06/29 07:21:11;;;;;;;;;;;;;;;;;;4975838;28;19964;-65
2023/06/29 07:23:36;;;;;;;;;;;;;;;;;;4976949;28;19964;-66
2023/06/29 07:26:02;;;;;;;;;;;;;;;;;;4974312;28;20044;-66
2023/06/29 07:28:27;;;;;;;;;;;;;;;;;;4980734;28;20333;-66
2023/06/29 07:30:52;;;;;;;;;;;;;;;;;;4975654;28;19940;-67
2023/06/29 07:33:17;;;;;;;;;;;;;;;;;;4976328;28;19937;-67
2023/06/29 07:35:43;;;;;;;;;;;;;;;;;;4981650;28;20053;-66
2023/06/29 07:38:08;;;;;;;;;;;;;;;;;;4975191;28;19941;-66
2023/06/29 07:40:33;;;;;;;;;;;;;;;;;;4975704;28;20348;-68
2023/06/29 07:42:59;;;;;;;;;;;;;;;;;;4975057;28;19937;-66
2023/06/29 07:45:24;;;;;;;;;;;;;;;;;;4978179;28;20005;-67
2023/06/29 07:47:50;;;;;;;;;;;;;;;;;;4975102;28;19950;-65
2023/06/29 07:50:15;;;;;;;;;;;;;;;;;;4974658;28;19956;-67
2023/06/29 07:52:41;;;;;;;;;;;;;;;;;;4975759;28;20371;-65
2023/06/29 07:55:06;;;;;;;;;;;;;;;;;;4975550;28;20025;-65
2023/06/29 07:57:32;;;;;;;;;;;;;;;;;;4975616;28;20089;-67
2023/06/29 07:59:57;;;;;;;;;;;;;;;;;;4979375;28;19986;-66
2023/06/29 08:02:23;;;;;;;;;;;;;;;;;;4973516;28;19943;-65
2023/06/29 08:04:49;;;;;;;;;;;;;;;;;;4973896;28;20658;-66
2023/06/29 08:07:15;;;;;;;;;;;;;;;;;;4974412;28;20001;-64
2023/06/29 08:09:40;;;;;;;;;;;;;;;;;;4979325;28;19972;-65
2023/06/29 08:12:05;;;;;;;;;;;;;;;;;;4973209;28;19950;-64
2023/06/29 08:14:32;;;;;;;;;;;;;;;;;;4971747;28;19984;-65
2023/06/29 08:16:57;;;;;;;;;;;;;;;;;;4974042;28;19943;-64
2023/06/29 08:19:23;;;;;;;;;;;;;;;;;;4973323;28;20172;-65
2023/06/29 08:21:48;;;;;;;;;;;;;;;;;;4974232;28;20015;-65
2023/06/29 08:24:14;;;;;;;;;;;;;;;;;;4973788;28;19960;-64
2023/06/29 08:26:39;;;;;;;;;;;;;;;;;;4974530;28;19992;-65
2023/06/29 08:29:04;;;;;;;;;;;;;;;;;;4972524;28;19964;-65
2023/06/29 08:31:30;;;;;;;;;;;;;;;;;;4973997;28;19942;-63
2023/06/29 08:33:55;;;;;;;;;;;;;;;;;;4958154;28;19961;-66
2023/06/29 08:36:20;;;;;;;;;;;;;;;;;;4973296;28;20463;-64
2023/06/29 08:38:46;;;;;;;;;;;;;;;;;;4974213;28;19969;-63
2023/06/29 08:41:13;;;;;;;;;;;;;;;;;;4975682;28;19993;-64
2023/06/29 08:43:39;;;;;;;;;;;;;;;;;;4974764;28;20100;-62
2023/06/29 08:46:04;;;;;;;;;;;;;;;;;;4974466;28;20329;-63
2023/06/29 08:48:29;;;;;;;;;;;;;;;;;;4977478;28;19945;-64
2023/06/29 08:50:55;;;;;;;;;;;;;;;;;;4974117;28;19946;-63
2023/06/29 08:53:20;;;;;;;;;;;;;;;;;;4974234;28;19936;-63
2023/06/29 08:55:45;;;;;;;;;;;;;;;;;;4972842;28;19994;-63
2023/06/29 08:58:11;;;;;;;;;;;;;;;;;;4972254;28;19938;-63
2023/06/29 09:00:37;;;;;;;;;;;;;;;;;;4971396;28;20028;-63
2023/06/29 09:03:02;;;;;;;;;;;;;;;;;;4971133;28;19977;-64
2023/06/29 09:05:27;;;;;;;;;;;;;;;;;;4973449;28;20606;-64
2023/06/29 09:07:53;;;;;;;;;;;;;;;;;;4971722;28;20433;-64
2023/06/29 09:10:18;;;;;;;;;;;;;;;;;;4972537;28;19947;-64
2023/06/29 09:12:44;;;;;;;;;;;;;;;;;;4972515;28;19985;-63
2023/06/29 09:15:13;;;;;;;;;;;;;;;;;;4970807;28;20612;-64
2023/06/29 09:17:38;;;;;;;;;;;;;;;;;;4973782;28;19932;-64
2023/06/29 09:20:10;;;;;;;;;;;;;;;;;;4972547;28;20015;-64
2023/06/29 09:22:36;;;;;;;;;;;;;;;;;;4969227;28;20386;-63
2023/06/29 09:25:01;;;;;;;;;;;;;;;;;;4969468;28;19957;-64
2023/06/29 09:27:26;;;;;;;;;;;;;;;;;;4972273;28;19966;-63
2023/06/29 09:29:52;;;;;;;;;;;;;;;;;;4972707;28;20486;-64
2023/06/29 09:32:17;;;;;;;;;;;;;;;;;;4970071;28;20033;-65
2023/06/29 09:34:42;;;;;;;;;;;;;;;;;;4971471;28;19940;-63
2023/06/29 09:37:08;;;;;;;;;;;;;;;;;;4973693;28;19933;-63
2023/06/29 09:39:33;;;;;;;;;;;;;;;;;;4978398;28;19933;-63
2023/06/29 09:41:59;;;;;;;;;;;;;;;;;;4971578;28;19945;-63
2023/06/29 09:44:24;;;;;;;;;;;;;;;;;;4972144;28;19958;-63
2023/06/29 09:46:50;;;;;;;;;;;;;;;;;;4972932;28;19951;-63
2023/06/29 09:49:15;;;;;;;;;;;;;;;;;;4975220;28;20108;-63
2023/06/29 09:51:40;;;;;;;;;;;;;;;;;;4976657;28;19944;-63
2023/06/29 09:54:06;;;;;;;;;;;;;;;;;;4974597;28;19979;-64
2023/06/29 09:56:33;;;;;;;;;;;;;;;;;;4976374;28;19997;-64
2023/06/29 09:58:59;;;;;;;;;;;;;;;;;;4972387;28;19938;-65
2023/06/29 10:01:24;;;;;;;;;;;;;;;;;;4977829;28;20022;-63
2023/06/29 10:03:49;;;;;;;;;;;;;;;;;;4972320;28;19956;-63
2023/06/29 10:06:15;;;;;;;;;;;;;;;;;;4970264;28;19944;-63
2023/06/29 10:08:40;;;;;;;;;;;;;;;;;;4971799;28;19941;-61
2023/06/29 10:11:07;;;;;;;;;;;;;;;;;;4972359;28;19943;-62
2023/06/29 10:13:32;;;;;;;;;;;;;;;;;;4977323;28;19964;-62
2023/06/29 10:15:58;;;;;;;;;;;;;;;;;;4981379;28;19933;-63
2023/06/29 10:18:23;;;;;;;;;;;;;;;;;;4970911;28;19933;-63
2023/06/29 10:20:49;;;;;;;;;;;;;;;;;;4973263;28;19979;-63
2023/06/29 10:23:15;;;;;;;;;;;;;;;;;;4971274;28;20477;-64
2023/06/29 10:25:40;;;;;;;;;;;;;;;;;;4971593;28;20593;-64
2023/06/29 10:28:05;;;;;;;;;;;;;;;;;;4971241;28;21055;-66
2023/06/29 10:30:31;;;;;;;;;;;;;;;;;;4972893;28;19941;-66
2023/06/29 10:32:56;;;;;;;;;;;;;;;;;;4971276;28;19940;-65
2023/06/29 10:35:22;;;;;;;;;;;;;;;;;;4970570;28;20034;-64
2023/06/29 10:37:47;;;;;;;;;;;;;;;;;;4970233;28;20416;-65
2023/06/29 10:40:13;;;;;;;;;;;;;;;;;;4970343;28;20695;-65
2023/06/29 10:42:38;;;;;;;;;;;;;;;;;;4970589;28;19943;-64
2023/06/29 10:45:03;;;;;;;;;;;;;;;;;;4969675;28;19960;-64
2023/06/29 10:47:29;;;;;;;;;;;;;;;;;;4970620;28;19947;-64
2023/06/29 10:49:54;;;;;;;;;;;;;;;;;;4970575;28;20043;-65
2023/06/29 10:52:20;;;;;;;;;;;;;;;;;;4972771;28;20563;-64
2023/06/29 10:54:45;;;;;;;;;;;;;;;;;;4969160;28;20444;-65
2023/06/29 10:57:11;;;;;;;;;;;;;;;;;;4970253;28;19929;-63
2023/06/29 10:59:38;;;;;;;;;;;;;;;;;;4971892;28;19964;-65
2023/06/29 11:02:03;;;;;;;;;;;;;;;;;;4970952;28;20290;-65
2023/06/29 11:04:29;;;;;;;;;;;;;;;;;;4971453;28;19962;-65
2023/06/29 11:06:54;;;;;;;;;;;;;;;;;;4971658;28;20385;-64
2023/06/29 11:09:19;;;;;;;;;;;;;;;;;;4970155;28;19945;-64
2023/06/29 11:11:45;;;;;;;;;;;;;;;;;;4970075;28;19978;-64
2023/06/29 11:14:10;;;;;;;;;;;;;;;;;;4970839;28;19940;-64
2023/06/29 11:16:35;;;;;;;;;;;;;;;;;;4973024;28;20354;-65
2023/06/29 11:19:01;;;;;;;;;;;;;;;;;;4970160;28;20473;-64
2023/06/29 11:21:27;;;;;;;;;;;;;;;;;;4971168;28;19938;-64
2023/06/29 11:23:53;;;;;;;;;;;;;;;;;;4971116;28;19974;-64
2023/06/29 11:26:20;;;;;;;;;;;;;;;;;;4970773;28;20301;-64
2023/06/29 11:28:45;;;;;;;;;;;;;;;;;;4970021;28;20110;-64
2023/06/29 11:31:11;;;;;;;;;;;;;;;;;;4970186;28;20000;-64
2023/06/29 11:33:36;;;;;;;;;;;;;;;;;;4969710;28;19945;-64
2023/06/29 11:36:01;;;;;;;;;;;;;;;;;;4969906;28;19941;-64
2023/06/29 11:38:27;;;;;;;;;;;;;;;;;;4969319;28;20298;-63
2023/06/29 11:40:52;;;;;;;;;;;;;;;;;;4969329;28;19938;-63
2023/06/29 11:43:17;;;;;;;;;;;;;;;;;;4969492;28;19940;-64
2023/06/29 11:45:43;;;;;;;;;;;;;;;;;;4969659;28;19945;-63
2023/06/29 11:48:10;;;;;;;;;;;;;;;;;;4970651;28;19944;-64
2023/06/29 11:50:36;;;;;;;;;;;;;;;;;;4977179;28;19961;-64
2023/06/29 11:53:02;;;;;;;;;;;;;;;;;;4975120;28;20411;-65
2023/06/29 11:55:27;;;;;;;;;;;;;;;;;;4975165;28;19969;-64
2023/06/29 11:57:53;;;;;;;;;;;;;;;;;;4980368;28;19935;-64
2023/06/29 12:00:19;;;;;;;;;;;;;;;;;;4974312;28;19978;-64
2023/06/29 12:02:44;;;;;;;;;;;;;;;;;;4974048;28;20060;-65
2023/06/29 12:05:09;;;;;;;;;;;;;;;;;;4972233;28;20398;-64
2023/06/29 12:07:35;;;;;;;;;;;;;;;;;;4973288;28;19964;-64
2023/06/29 12:10:01;;;;;;;;;;;;;;;;;;4975227;28;20022;-63
2023/06/29 12:12:26;;;;;;;;;;;;;;;;;;4973765;28;19943;-63
2023/06/29 12:14:51;;;;;;;;;;;;;;;;;;4972316;28;19954;-64
2023/06/29 12:17:17;;;;;;;;;;;;;;;;;;4974889;28;19965;-62
2023/06/29 12:19:42;;;;;;;;;;;;;;;;;;4974670;28;20027;-62
2023/06/29 12:22:07;;;;;;;;;;;;;;;;;;4975073;28;19935;-62
2023/06/29 12:24:33;;;;;;;;;;;;;;;;;;4972715;28;19961;-62
2023/06/29 12:26:58;;;;;;;;;;;;;;;;;;4974853;28;19950;-65
2023/06/29 12:29:23;;;;;;;;;;;;;;;;;;4974356;28;20109;-63
2023/06/29 12:31:48;;;;;;;;;;;;;;;;;;4971937;28;19941;-63
2023/06/29 12:34:14;;;;;;;;;;;;;;;;;;4972833;28;20004;-63
2023/06/29 12:36:39;;;;;;;;;;;;;;;;;;4973889;28;19938;-64
2023/06/29 12:39:05;;;;;;;;;;;;;;;;;;4971874;28;19970;-64
2023/06/29 12:41:31;;;;;;;;;;;;;;;;;;4973803;28;19941;-63
2023/06/29 12:43:56;;;;;;;;;;;;;;;;;;4972017;28;20528;-63
2023/06/29 12:46:23;;;;;;;;;;;;;;;;;;4972185;28;20419;-63
2023/06/29 12:48:48;;;;;;;;;;;;;;;;;;4972429;28;19940;-64
2023/06/29 12:51:14;;;;;;;;;;;;;;;;;;4973425;28;19958;-63
2023/06/29 12:53:41;;;;;;;;;;;;;;;;;;4972528;28;20615;-63
2023/06/29 12:56:06;;;;;;;;;;;;;;;;;;4976317;28;20422;-63
2023/06/29 12:58:31;;;;;;;;;;;;;;;;;;4973566;28;19937;-64
2023/06/29 13:00:57;;;;;;;;;;;;;;;;;;4971903;28;20530;-64
2023/06/29 13:03:22;;;;;;;;;;;;;;;;;;4973529;28;19985;-64
2023/06/29 13:05:50;;;;;;;;;;;;;;;;;;4990666;28;20238;-65
2023/06/29 13:08:15;;;;;;;;;;;;;;;;;;4972755;28;19943;-65
2023/06/29 13:10:41;;;;;;;;;;;;;;;;;;4972197;28;19940;-60
2023/06/29 13:13:06;;;;;;;;;;;;;;;;;;4972424;28;20233;-62
2023/06/29 13:15:32;;;;;;;;;;;;;;;;;;4972366;28;19988;-59
2023/06/29 13:17:58;;;;;;;;;;;;;;;;;;4972433;28;20040;-58
2023/06/29 13:20:23;;;;;;;;;;;;;;;;;;4973416;28;19965;-61
2023/06/29 13:22:49;;;;;;;;;;;;;;;;;;4971554;28;19963;-63
2023/06/29 13:25:14;;;;;;;;;;;;;;;;;;4970949;28;20003;-63
2023/06/29 13:27:41;;;;;;;;;;;;;;;;;;4971920;28;20043;-62
2023/06/29 13:30:06;;;;;;;;;;;;;;;;;;4971422;28;19945;-64
2023/06/29 13:32:31;;;;;;;;;;;;;;;;;;4969673;28;19942;-63
2023/06/29 13:34:57;;;;;;;;;;;;;;;;;;4968862;28;20004;-63
2023/06/29 13:37:22;;;;;;;;;;;;;;;;;;4968138;28;20349;-65
2023/06/29 13:39:47;;;;;;;;;;;;;;;;;;4969180;28;20541;-64
2023/06/29 13:42:15;;;;;;;;;;;;;;;;;;4974532;28;19956;-63
2023/06/29 13:44:41;;;;;;;;;;;;;;;;;;4971169;28;20001;-63
2023/06/29 13:47:06;;;;;;;;;;;;;;;;;;4971406;28;19946;-64
2023/06/29 13:49:32;;;;;;;;;;;;;;;;;;4971546;28;19941;-65
2023/06/29 13:51:57;;;;;;;;;;;;;;;;;;4973436;28;20502;-66
2023/06/29 13:54:22;;;;;;;;;;;;;;;;;;4971549;28;20838;-63
2023/06/29 13:56:49;;;;;;;;;;;;;;;;;;4972901;28;19945;-63
2023/06/29 13:59:14;;;;;;;;;;;;;;;;;;4972007;28;19933;-63
2023/06/29 14:01:40;;;;;;;;;;;;;;;;;;4972894;28;20507;-64
2023/06/29 14:04:05;;;;;;;;;;;;;;;;;;4972762;28;20047;-57
2023/06/29 14:06:32;;;;;;;;;;;;;;;;;;4971891;28;19949;-63
2023/06/29 14:08:58;;;;;;;;;;;;;;;;;;4968197;28;19934;-63
2023/06/29 14:11:23;;;;;;;;;;;;;;;;;;4968363;28;19975;-63
2023/06/29 14:13:48;;;;;;;;;;;;;;;;;;4968982;28;19948;-63
2023/06/29 14:16:14;;;;;;;;;;;;;;;;;;4971923;28;19935;-63
2023/06/29 14:18:39;;;;;;;;;;;;;;;;;;4969921;28;20309;-62
2023/06/29 14:21:05;;;;;;;;;;;;;;;;;;4971589;28;20341;-63
2023/06/29 14:23:31;;;;;;;;;;;;;;;;;;4971206;28;20335;-63
2023/06/29 14:25:57;;;;;;;;;;;;;;;;;;4971179;28;19936;-63
2023/06/29 14:28:23;;;;;;;;;;;;;;;;;;4970421;28;20363;-64
2023/06/29 14:30:48;;;;;;;;;;;;;;;;;;4971240;28;19999;-63
2023/06/29 14:33:14;;;;;;;;;;;;;;;;;;4978138;28;19939;-62
2023/06/29 14:35:39;;;;;;;;;;;;;;;;;;4972832;28;19937;-63
2023/06/29 14:38:05;;;;;;;;;;;;;;;;;;4971236;28;19942;-63
2023/06/29 14:40:30;;;;;;;;;;;;;;;;;;4971195;28;19940;-62
2023/06/29 14:42:56;;;;;;;;;;;;;;;;;;4972489;28;19944;-63
2023/06/29 14:45:21;;;;;;;;;;;;;;;;;;4971675;28;19958;-62
2023/06/29 14:47:46;;;;;;;;;;;;;;;;;;4971709;28;19942;-62
2023/06/29 14:50:12;;;;;;;;;;;;;;;;;;4972857;28;19937;-63
2023/06/29 14:52:37;;;;;;;;;;;;;;;;;;4971978;28;19990;-62
2023/06/29 14:55:04;;;;;;;;;;;;;;;;;;4970487;28;19966;-63
2023/06/29 14:57:30;;;;;;;;;;;;;;;;;;4977934;28;19967;-63
2023/06/29 14:59:55;;;;;;;;;;;;;;;;;;4969454;28;20365;-57
2023/06/29 15:02:20;;;;;;;;;;;;;;;;;;4970541;28;19941;-63
2023/06/29 15:04:46;;;;;;;;;;;;;;;;;;4971421;28;19996;-62
2023/06/29 15:07:11;;;;;;;;;;;;;;;;;;4969671;28;19941;-60
2023/06/29 15:09:36;;;;;;;;;;;;;;;;;;4969534;28;19968;-62
2023/06/29 15:12:04;;;;;;;;;;;;;;;;;;4970623;28;20463;-60
2023/06/29 15:14:30;;;;;;;;;;;;;;;;;;4969593;28;19949;-61
2023/06/29 15:16:55;;;;;;;;;;;;;;;;;;4969190;28;20291;-61
2023/06/29 15:19:20;;;;;;;;;;;;;;;;;;4970664;28;20408;-61
2023/06/29 15:21:46;;;;;;;;;;;;;;;;;;4971995;28;20415;-62
2023/06/29 15:24:11;;;;;;;;;;;;;;;;;;4975981;28;19948;-62
2023/06/29 15:26:36;;;;;;;;;;;;;;;;;;4975206;28;19938;-62
2023/06/29 15:29:02;;;;;;;;;;;;;;;;;;4973448;28;19958;-63
2023/06/29 15:31:28;;;;;;;;;;;;;;;;;;4973738;28;19940;-63
2023/06/29 15:33:53;;;;;;;;;;;;;;;;;;4972840;28;19941;-62
2023/06/29 15:36:18;;;;;;;;;;;;;;;;;;4974375;28;19939;-61
2023/06/29 15:38:43;;;;;;;;;;;;;;;;;;4973669;28;20029;-62
2023/06/29 15:41:09;;;;;;;;;;;;;;;;;;4973318;28;19936;-61
2023/06/29 15:43:34;;;;;;;;;;;;;;;;;;4976115;28;19963;-61
2023/06/29 15:45:59;;;;;;;;;;;;;;;;;;4975857;28;20290;-62
2023/06/29 15:48:25;;;;;;;;;;;;;;;;;;4973840;28;19918;-62
2023/06/29 15:50:50;;;;;;;;;;;;;;;;;;4972991;28;20862;-62
2023/06/29 15:53:15;;;;;;;;;;;;;;;;;;4974545;28;20416;-62
2023/06/29 15:55:40;;;;;;;;;;;;;;;;;;4973670;28;20067;-62
2023/06/29 15:58:06;;;;;;;;;;;;;;;;;;4971245;28;19918;-60
2023/06/29 16:00:31;;;;;;;;;;;;;;;;;;4970340;28;20369;-62
2023/06/29 16:02:56;;;;;;;;;;;;;;;;;;4972643;28;20567;-62
2023/06/29 16:05:22;;;;;;;;;;;;;;;;;;4973637;28;19922;-61
2023/06/29 16:07:47;;;;;;;;;;;;;;;;;;4965287;28;19929;-63
2023/06/29 16:10:12;;;;;;;;;;;;;;;;;;4979133;28;19957;-62
2023/06/29 16:12:39;;;;;;;;;;;;;;;;;;4973960;28;20427;-63
2023/06/29 16:15:04;;;;;;;;;;;;;;;;;;4973453;28;19918;-63
2023/06/29 16:17:29;;;;;;;;;;;;;;;;;;4973429;28;20313;-65
2023/06/29 16:19:55;;;;;;;;;;;;;;;;;;4980284;28;19918;-61
2023/06/29 16:22:20;;;;;;;;;;;;;;;;;;4978830;28;19926;-66
2023/06/29 16:24:46;;;;;;;;;;;;;;;;;;4973120;28;19929;-64
2023/06/29 16:27:11;;;;;;;;;;;;;;;;;;4976492;28;20028;-65
2023/06/29 16:29:36;;;;;;;;;;;;;;;;;;4974270;28;20013;-64
2023/06/29 16:32:01;;;;;;;;;;;;;;;;;;4976567;28;19933;-65
2023/06/29 16:34:27;;;;;;;;;;;;;;;;;;4982511;28;20039;-67